Time;durP1;ratioP1;P1;durP2;ratioP2;P2;SDS_P1;SDS_P2;PMS_P1;PMS_P2;Temp;Humidity;BMP_temperature;BMP_pressure;BME280_temperature;BME280_humidity;BME280_pressure;Samples;Min_cycle;Max_cycle;Signal;HPM_P1;HPM_P2
2023/10/09 00:01:25;;;;;;;8.98;5.13;;;;;;;;;;5034456;28;20202;-70
2023/10/09 00:03:53;;;;;;;10.35;5.43;;;;;;;;;;5034516;28;20400;-70
2023/10/09 00:06:24;;;;;;;9.07;5.00;;;;;;;;;;5034259;28;20218;-70
2023/10/09 00:08:53;;;;;;;14.68;5.53;;;;;;;;;;5026303;28;20233;-70
2023/10/09 00:11:20;;;;;;;10.07;6.05;;;;;;;;;;5034073;28;20289;-70
2023/10/09 00:13:51;;;;;;;14.43;5.63;;;;;;;;;;5034360;28;20194;-70
2023/10/09 00:16:24;;;;;;;14.80;5.85;;;;;;;;;;5034322;28;20268;-70
2023/10/09 00:18:53;;;;;;;10.20;5.60;;;;;;;;;;5026236;28;20202;-70
2023/10/09 00:21:22;;;;;;;10.63;5.28;;;;;;;;;;5034054;28;20237;-70
2023/10/09 00:23:54;;;;;;;11.57;5.65;;;;;;;;;;5034216;28;20316;-71
2023/10/09 00:26:22;;;;;;;10.57;5.80;;;;;;;;;;5032743;28;20226;-70
2023/10/09 00:28:51;;;;;;;13.23;6.32;;;;;;;;;;5033904;28;20198;-70
2023/10/09 00:31:28;;;;;;;8.77;5.53;;;;;;;;;;5033542;28;20268;-70
2023/10/09 00:33:55;;;;;;;8.80;5.25;;;;;;;;;;5026295;28;20285;-70
2023/10/09 00:36:27;;;;;;;12.40;5.68;;;;;;;;;;5033608;28;20632;-70
2023/10/09 00:38:53;;;;;;;10.23;5.78;;;;;;;;;;5025812;28;20201;-70
2023/10/09 00:41:24;;;;;;;14.35;5.95;;;;;;;;;;5033581;28;20202;-70
2023/10/09 00:43:51;;;;;;;10.23;5.53;;;;;;;;;;5033528;28;20589;-70
2023/10/09 00:46:24;;;;;;;10.98;5.85;;;;;;;;;;5033632;28;20222;-70
2023/10/09 00:48:52;;;;;;;9.98;5.50;;;;;;;;;;5033378;28;20626;-70
2023/10/09 00:51:19;;;;;;;10.23;6.10;;;;;;;;;;5033424;28;20228;-70
2023/10/09 00:53:50;;;;;;;9.30;5.47;;;;;;;;;;5033470;28;20251;-70
2023/10/09 00:56:21;;;;;;;13.23;5.78;;;;;;;;;;5033354;28;20222;-70
2023/10/09 00:58:48;;;;;;;13.48;5.47;;;;;;;;;;5033719;28;20299;-70
2023/10/09 01:01:16;;;;;;;10.95;4.63;;;;;;;;;;5033212;28;20677;-70
2023/10/09 01:03:44;;;;;;;14.45;5.25;;;;;;;;;;5033193;28;20617;-70
2023/10/09 01:06:22;;;;;;;9.27;5.30;;;;;;;;;;5033476;28;20233;-70
2023/10/09 01:09:06;;;;;;;12.43;5.07;;;;;;;;;;5033115;28;20202;-70
2023/10/09 01:11:34;;;;;;;11.25;5.18;;;;;;;;;;5033189;28;20253;-70
2023/10/09 01:14:11;;;;;;;12.07;5.00;;;;;;;;;;5033319;28;20197;-70
2023/10/09 01:16:41;;;;;;;12.18;5.07;;;;;;;;;;5032958;28;20320;-70
2023/10/09 01:19:19;;;;;;;13.30;5.90;;;;;;;;;;5032752;28;20208;-70
2023/10/09 01:21:46;;;;;;;10.05;4.78;;;;;;;;;;5033133;28;20202;-70
2023/10/09 01:24:16;;;;;;;11.55;5.68;;;;;;;;;;5032821;28;20629;-70
2023/10/09 01:26:46;;;;;;;16.98;6.00;;;;;;;;;;5032855;28;20221;-70
2023/10/09 01:29:16;;;;;;;9.30;5.40;;;;;;;;;;5032685;28;20260;-69
2023/10/09 01:31:46;;;;;;;13.45;5.95;;;;;;;;;;5032426;28;20226;-71
2023/10/09 01:34:13;;;;;;;13.15;4.97;;;;;;;;;;5033046;28;20233;-71
2023/10/09 01:36:41;;;;;;;11.18;5.20;;;;;;;;;;5032330;28;20308;-71
2023/10/09 01:39:21;;;;;;;15.30;5.32;;;;;;;;;;5032526;28;20207;-71
2023/10/09 01:41:51;;;;;;;10.80;5.20;;;;;;;;;;5032673;28;20200;-71
2023/10/09 01:44:18;;;;;;;9.68;5.45;;;;;;;;;;5032454;28;20198;-71
2023/10/09 01:46:45;;;;;;;8.88;5.05;;;;;;;;;;5032217;28;20222;-71
2023/10/09 01:49:17;;;;;;;13.43;5.60;;;;;;;;;;5032624;28;20202;-71
2023/10/09 01:51:44;;;;;;;10.88;5.47;;;;;;;;;;5032392;28;20217;-71
2023/10/09 01:54:16;;;;;;;14.07;5.88;;;;;;;;;;5032509;28;20197;-71
2023/10/09 01:56:46;;;;;;;13.52;5.68;;;;;;;;;;5032014;28;20768;-71
2023/10/09 01:59:15;;;;;;;12.43;6.35;;;;;;;;;;5032280;28;20236;-71
2023/10/09 02:01:47;;;;;;;11.98;5.88;;;;;;;;;;5032028;28;20198;-71
2023/10/09 02:04:14;;;;;;;12.43;6.13;;;;;;;;;;5032407;28;20202;-71
2023/10/09 02:06:40;;;;;;;14.73;6.25;;;;;;;;;;5032098;28;20313;-71
2023/10/09 02:09:07;;;;;;;13.50;6.03;;;;;;;;;;5031979;28;20202;-71
2023/10/09 02:11:41;;;;;;;13.05;6.03;;;;;;;;;;5031948;28;20229;-71
2023/10/09 02:14:19;;;;;;;11.27;5.95;;;;;;;;;;5024947;28;20252;-71
2023/10/09 02:17:02;;;;;;;10.40;6.30;;;;;;;;;;5031825;28;20221;-71
2023/10/09 02:19:33;;;;;;;11.35;6.05;;;;;;;;;;5031763;28;20284;-71
2023/10/09 02:22:01;;;;;;;15.05;6.47;;;;;;;;;;5031982;28;20194;-71
2023/10/09 02:24:49;;;;;;;11.43;6.05;;;;;;;;;;5031855;28;20288;-71
2023/10/09 02:27:19;;;;;;;11.02;6.18;;;;;;;;;;5031590;28;20204;-71
2023/10/09 02:29:47;;;;;;;16.80;6.47;;;;;;;;;;5031521;28;20206;-71
2023/10/09 02:32:24;;;;;;;13.35;6.55;;;;;;;;;;5031543;28;20272;-71
2023/10/09 02:34:53;;;;;;;13.32;6.75;;;;;;;;;;5031568;28;20575;-71
2023/10/09 02:37:23;;;;;;;13.75;5.78;;;;;;;;;;5032001;28;20276;-71
2023/10/09 02:39:52;;;;;;;13.40;6.80;;;;;;;;;;5031623;28;20526;-71
2023/10/09 02:42:23;;;;;;;11.73;6.13;;;;;;;;;;5032024;28;20205;-71
2023/10/09 02:44:51;;;;;;;12.93;5.70;;;;;;;;;;5031428;28;20320;-71
2023/10/09 02:47:24;;;;;;;13.75;5.88;;;;;;;;;;5031648;28;20206;-71
2023/10/09 02:49:51;;;;;;;13.80;6.57;;;;;;;;;;5030644;28;20302;-71
2023/10/09 02:52:24;;;;;;;11.25;5.65;;;;;;;;;;5031297;28;20600;-71
2023/10/09 02:54:59;;;;;;;14.40;6.32;;;;;;;;;;5031433;28;20240;-71
2023/10/09 02:57:28;;;;;;;13.13;6.28;;;;;;;;;;5031388;28;20570;-71
2023/10/09 02:59:54;;;;;;;14.82;6.85;;;;;;;;;;5031188;28;20213;-71
2023/10/09 03:02:24;;;;;;;9.32;6.18;;;;;;;;;;5031376;28;20520;-71
2023/10/09 03:04:50;;;;;;;19.65;7.13;;;;;;;;;;5031160;28;20208;-70
2023/10/09 03:07:16;;;;;;;14.52;6.63;;;;;;;;;;5031182;28;20197;-70
2023/10/09 03:09:42;;;;;;;15.68;6.68;;;;;;;;;;5030719;28;20690;-70
2023/10/09 03:12:11;;;;;;;12.45;6.70;;;;;;;;;;5031296;28;20721;-70
2023/10/09 03:14:39;;;;;;;13.02;6.40;;;;;;;;;;5031125;28;20663;-69
2023/10/09 03:17:07;;;;;;;14.02;6.68;;;;;;;;;;5031033;28;20240;-69
2023/10/09 03:19:37;;;;;;;9.70;5.93;;;;;;;;;;5031018;28;20217;-69
2023/10/09 03:22:03;;;;;;;13.50;6.97;;;;;;;;;;5030912;28;20216;-69
2023/10/09 03:24:30;;;;;;;12.05;6.72;;;;;;;;;;5031254;28;20255;-69
2023/10/09 03:26:57;;;;;;;15.63;6.78;;;;;;;;;;5031170;28;20308;-71
2023/10/09 03:29:23;;;;;;;16.90;6.93;;;;;;;;;;5031236;28;20202;-70
2023/10/09 03:31:50;;;;;;;11.27;7.10;;;;;;;;;;5031202;28;20225;-71
2023/10/09 03:34:18;;;;;;;16.33;7.57;;;;;;;;;;5031261;28;20692;-71
2023/10/09 03:36:51;;;;;;;16.60;7.10;;;;;;;;;;5030685;28;20643;-71
2023/10/09 03:39:24;;;;;;;13.18;7.45;;;;;;;;;;5030950;28;20194;-71
2023/10/09 03:41:51;;;;;;;13.60;7.05;;;;;;;;;;5030924;28;20658;-71
2023/10/09 03:44:18;;;;;;;16.15;7.22;;;;;;;;;;5030975;28;20197;-71
2023/10/09 03:46:45;;;;;;;15.55;7.88;;;;;;;;;;5030751;28;20308;-71
2023/10/09 03:49:13;;;;;;;17.45;6.95;;;;;;;;;;5030557;28;20288;-71
2023/10/09 03:51:41;;;;;;;12.27;7.18;;;;;;;;;;5031104;28;20229;-71
2023/10/09 03:54:10;;;;;;;16.88;7.10;;;;;;;;;;5031206;28;20202;-71
2023/10/09 03:56:36;;;;;;;16.10;7.22;;;;;;;;;;5030794;28;20279;-71
2023/10/09 03:59:04;;;;;;;17.17;6.97;;;;;;;;;;5030720;28;20202;-71
2023/10/09 04:01:37;;;;;;;18.20;7.32;;;;;;;;;;5033339;28;20616;-71
2023/10/09 04:04:06;;;;;;;11.10;5.88;;;;;;;;;;5034516;28;20258;-71
2023/10/09 04:06:32;;;;;;;9.35;5.78;;;;;;;;;;5034514;28;20222;-71
2023/10/09 04:08:59;;;;;;;15.55;6.63;;;;;;;;;;5034224;28;20252;-71
2023/10/09 04:11:26;;;;;;;15.15;6.50;;;;;;;;;;5034120;28;20626;-71
2023/10/09 04:13:53;;;;;;;15.18;6.60;;;;;;;;;;5034142;28;20206;-71
2023/10/09 04:16:35;;;;;;;17.02;6.95;;;;;;;;;;5034105;28;20602;-71
2023/10/09 04:19:08;;;;;;;15.77;6.60;;;;;;;;;;5034290;28;20244;-69
2023/10/09 04:21:36;;;;;;;11.00;6.10;;;;;;;;;;5034243;28;20202;-70
2023/10/09 04:26:48;;;;;;;11.60;6.43;;;;;;;;;;5033898;28;20216;-70
2023/10/09 04:29:18;;;;;;;14.05;6.57;;;;;;;;;;5025800;28;20202;-70
2023/10/09 04:31:44;;;;;;;10.98;6.70;;;;;;;;;;5034059;28;20300;-71
2023/10/09 04:34:23;;;;;;;13.35;6.70;;;;;;;;;;5033759;28;20560;-71
2023/10/09 04:36:51;;;;;;;18.23;6.88;;;;;;;;;;5033969;28;20217;-71
2023/10/09 04:39:35;;;;;;;12.52;6.32;;;;;;;;;;5025846;28;20193;-71
2023/10/09 04:42:36;;;;;;;15.27;6.00;;;;;;;;;;5034013;28;20628;-71
2023/10/09 04:47:58;;;;;;;14.35;6.63;;;;;;;;;;5033705;28;20313;-70
2023/10/09 04:53:22;;;;;;;15.85;6.90;;;;;;;;;;5033403;28;20228;-70
2023/10/09 04:55:54;;;;;;;11.75;6.43;;;;;;;;;;5033280;28;20269;-70
2023/10/09 04:58:25;;;;;;;18.10;6.57;;;;;;;;;;5026043;28;20201;-70
2023/10/09 05:01:04;;;;;;;11.98;6.80;;;;;;;;;;5033282;28;20272;-70
2023/10/09 05:03:42;;;;;;;14.63;6.25;;;;;;;;;;5033597;28;20198;-70
2023/10/09 05:06:21;;;;;;;16.52;7.32;;;;;;;;;;5033607;28;20229;-70
2023/10/09 05:08:48;;;;;;;11.55;6.35;;;;;;;;;;5033489;28;20200;-70
2023/10/09 05:11:34;;;;;;;12.15;6.28;;;;;;;;;;5032941;28;20197;-70
2023/10/09 05:14:13;;;;;;;11.45;5.90;;;;;;;;;;5032894;28;20198;-64
2023/10/09 05:16:53;;;;;;;15.85;6.65;;;;;;;;;;5032949;28;20271;-64
2023/10/09 05:19:33;;;;;;;14.45;6.57;;;;;;;;;;5025128;28;20201;-64
2023/10/09 05:22:04;;;;;;;12.40;5.88;;;;;;;;;;5033078;28;20190;-64
2023/10/09 05:24:42;;;;;;;13.70;6.20;;;;;;;;;;5033198;28;20491;-64
2023/10/09 05:27:17;;;;;;;12.45;5.93;;;;;;;;;;5032523;28;20224;-65
2023/10/09 05:29:59;;;;;;;12.50;6.40;;;;;;;;;;5032873;28;20207;-64
2023/10/09 05:32:29;;;;;;;15.50;6.25;;;;;;;;;;5025301;28;20245;-64
2023/10/09 05:35:07;;;;;;;17.58;6.88;;;;;;;;;;5032632;28;20217;-64
2023/10/09 05:37:34;;;;;;;14.50;6.85;;;;;;;;;;5032584;28;20201;-64
2023/10/09 05:40:22;;;;;;;15.85;6.28;;;;;;;;;;5032584;28;20198;-64
2023/10/09 05:42:57;;;;;;;15.45;6.63;;;;;;;;;;5032683;28;20193;-64
2023/10/09 05:46:07;;;;;;;15.18;6.65;;;;;;;;;;5024630;28;20217;-64
2023/10/09 05:51:53;;;;;;;14.43;6.50;;;;;;;;;;5158928;27;20548;-64
2023/10/09 06:08:08;;;;;;;18.23;7.18;;;;;;;;;;5158805;27;20192;-65
2023/10/09 06:10:40;;;;;;;17.63;6.68;;;;;;;;;;5162027;27;20209;-63
2023/10/09 06:13:07;;;;;;;13.82;5.78;;;;;;;;;;5160805;27;20238;-64
2023/10/09 06:18:34;;;;;;;15.85;7.00;;;;;;;;;;5159109;27;20536;-64
2023/10/09 06:21:09;;;;;;;17.13;6.90;;;;;;;;;;5158799;27;20197;-64
2023/10/09 06:24:08;;;;;;;21.52;7.25;;;;;;;;;;5162451;27;20199;-64
2023/10/09 06:26:35;;;;;;;18.08;6.70;;;;;;;;;;5151662;27;20697;-64
2023/10/09 06:29:30;;;;;;;19.50;6.88;;;;;;;;;;5158862;27;20645;-64
2023/10/09 06:32:16;;;;;;;16.08;7.03;;;;;;;;;;5162267;27;20202;-64
2023/10/09 06:34:45;;;;;;;22.63;6.95;;;;;;;;;;5152992;27;20213;-64
2023/10/09 06:37:34;;;;;;;21.23;7.35;;;;;;;;;;5159960;27;20225;-64
2023/10/09 06:45:54;;;;;;;17.00;6.63;;;;;;;;;;5156401;27;20256;-63
2023/10/09 06:51:12;;;;;;;22.33;7.53;;;;;;;;;;5150768;27;20258;-65
2023/10/09 06:56:29;;;;;;;16.92;7.05;;;;;;;;;;5143528;27;20220;-63
2023/10/09 06:58:55;;;;;;;27.00;7.78;;;;;;;;;;5144397;27;20748;-63
2023/10/09 07:01:28;;;;;;;24.10;8.35;;;;;;;;;;5144934;27;20222;-62
2023/10/09 07:03:54;;;;;;;20.52;7.68;;;;;;;;;;5149223;27;20212;-63
2023/10/09 07:06:24;;;;;;;16.77;7.30;;;;;;;;;;5146702;27;20254;-62
2023/10/09 07:09:15;;;;;;;21.23;7.13;;;;;;;;;;5146461;27;20208;-64
2023/10/09 07:15:01;;;;;;;23.42;8.02;;;;;;;;;;5135824;27;20209;-64
2023/10/09 07:17:21;;;;;;;17.30;6.88;;;;;;;;;;5146164;27;20595;-66
2023/10/09 07:20:09;;;;;;;27.92;7.85;;;;;;;;;;5146112;27;20454;-65
2023/10/09 07:22:52;;;;;;;18.23;7.43;;;;;;;;;;5144888;27;20201;-65
2023/10/09 07:25:27;;;;;;;22.45;7.85;;;;;;;;;;5150705;27;20279;-65
2023/10/09 07:27:56;;;;;;;26.15;8.40;;;;;;;;;;5146230;27;20205;-65
2023/10/09 07:30:37;;;;;;;21.17;7.22;;;;;;;;;;5137712;27;20210;-65
2023/10/09 07:33:05;;;;;;;29.77;7.60;;;;;;;;;;5128577;27;20205;-65
2023/10/09 07:35:46;;;;;;;21.58;7.20;;;;;;;;;;5129587;27;20228;-65
2023/10/09 07:38:19;;;;;;;22.10;7.68;;;;;;;;;;5130497;27;20774;-65
2023/10/09 07:40:55;;;;;;;19.40;7.68;;;;;;;;;;5136352;27;20653;-63
2023/10/09 07:43:26;;;;;;;24.15;7.63;;;;;;;;;;5130578;27;20714;-63
2023/10/09 07:46:29;;;;;;;25.42;7.88;;;;;;;;;;5134327;27;20256;-63
2023/10/09 07:48:48;;;;;;;26.35;8.20;;;;;;;;;;5132518;27;20216;-64
2023/10/09 07:51:15;;;;;;;18.90;8.18;;;;;;;;;;5136316;27;20362;-64
2023/10/09 07:53:44;;;;;;;25.45;8.40;;;;;;;;;;5130927;27;20201;-64
2023/10/09 07:56:13;;;;;;;19.98;7.40;;;;;;;;;;5135919;27;20241;-64
2023/10/09 07:58:46;;;;;;;21.17;7.65;;;;;;;;;;5130870;27;20266;-64
2023/10/09 08:01:22;;;;;;;30.23;8.02;;;;;;;;;;5135851;27;20953;-64
2023/10/09 08:03:57;;;;;;;38.63;8.25;;;;;;;;;;5128401;27;20570;-64
2023/10/09 08:06:43;;;;;;;22.48;6.78;;;;;;;;;;5135839;27;20250;-64
2023/10/09 08:09:28;;;;;;;23.67;7.63;;;;;;;;;;5127282;27;20286;-64
2023/10/09 08:14:45;;;;;;;22.23;6.68;;;;;;;;;;5121347;27;20205;-64
2023/10/09 08:17:20;;;;;;;29.65;7.20;;;;;;;;;;5130059;27;20226;-64
2023/10/09 08:19:53;;;;;;;21.33;6.50;;;;;;;;;;5139759;27;20207;-64
2023/10/09 08:25:07;;;;;;;19.63;6.47;;;;;;;;;;5135681;27;20686;-64
2023/10/09 08:27:46;;;;;;;18.77;6.53;;;;;;;;;;5135823;27;20244;-65
2023/10/09 08:30:28;;;;;;;25.15;7.40;;;;;;;;;;5129000;27;20267;-66
2023/10/09 08:33:00;;;;;;;21.60;6.32;;;;;;;;;;5126350;27;20205;-65
2023/10/09 08:35:29;;;;;;;19.05;6.47;;;;;;;;;;5130098;27;20604;-64
2023/10/09 08:37:58;;;;;;;17.75;6.18;;;;;;;;;;5132309;27;20218;-64
2023/10/09 08:40:32;;;;;;;19.75;6.88;;;;;;;;;;5134226;27;20197;-65
2023/10/09 08:43:08;;;;;;;19.92;6.55;;;;;;;;;;5134435;27;20231;-65
2023/10/09 08:45:34;;;;;;;21.35;6.47;;;;;;;;;;5136268;27;20315;-66
2023/10/09 08:48:04;;;;;;;23.63;6.75;;;;;;;;;;5138555;27;20202;-66
2023/10/09 08:50:31;;;;;;;21.38;6.68;;;;;;;;;;5133921;27;20237;-65
2023/10/09 08:52:57;;;;;;;19.15;6.68;;;;;;;;;;5128719;27;20806;-64
2023/10/09 08:55:23;;;;;;;23.13;6.53;;;;;;;;;;5127572;27;20261;-65
2023/10/09 08:57:52;;;;;;;26.77;7.47;;;;;;;;;;5132231;27;20232;-63
2023/10/09 09:00:21;;;;;;;22.75;6.50;;;;;;;;;;5136327;27;20209;-64
2023/10/09 09:02:48;;;;;;;17.48;6.43;;;;;;;;;;5131072;27;20206;-64
2023/10/09 09:05:17;;;;;;;18.52;6.97;;;;;;;;;;5128017;27;20309;-62
2023/10/09 09:07:43;;;;;;;20.83;7.55;;;;;;;;;;5130789;27;20701;-63
2023/10/09 09:10:18;;;;;;;21.13;7.18;;;;;;;;;;5132997;27;20541;-66
2023/10/09 09:12:44;;;;;;;24.10;6.85;;;;;;;;;;5127420;27;20309;-63
2023/10/09 09:15:20;;;;;;;20.00;7.03;;;;;;;;;;5128120;27;20218;-64
2023/10/09 09:17:46;;;;;;;18.30;6.85;;;;;;;;;;5122129;27;20300;-64
2023/10/09 09:20:22;;;;;;;25.45;8.00;;;;;;;;;;5134737;27;20629;-64
2023/10/09 09:22:52;;;;;;;19.10;7.05;;;;;;;;;;5123392;27;20205;-65
2023/10/09 09:25:24;;;;;;;25.45;7.07;;;;;;;;;;5133188;27;20305;-64
2023/10/09 09:27:52;;;;;;;26.02;7.60;;;;;;;;;;5135320;27;20285;-64
2023/10/09 09:30:31;;;;;;;21.92;7.07;;;;;;;;;;5135873;27;20216;-64
2023/10/09 09:35:39;;;;;;;25.25;7.65;;;;;;;;;;5133973;27;20292;-64
2023/10/09 09:38:07;;;;;;;29.55;8.25;;;;;;;;;;5134342;27;20246;-64
2023/10/09 09:40:41;;;;;;;22.08;6.55;;;;;;;;;;5128109;27;20682;-64
2023/10/09 09:43:11;;;;;;;24.95;7.82;;;;;;;;;;5130493;27;20205;-64
2023/10/09 09:45:49;;;;;;;28.25;7.90;;;;;;;;;;5133790;27;20582;-64
2023/10/09 09:48:16;;;;;;;28.15;7.47;;;;;;;;;;5134140;27;20226;-64
2023/10/09 09:50:45;;;;;;;30.25;7.43;;;;;;;;;;5125145;27;20338;-63
2023/10/09 09:53:16;;;;;;;20.52;7.85;;;;;;;;;;5126188;27;20199;-65
2023/10/09 09:55:43;;;;;;;36.33;8.65;;;;;;;;;;5129227;27;20222;-64
2023/10/09 09:58:18;;;;;;;25.30;8.07;;;;;;;;;;5134715;27;20595;-64
2023/10/09 10:00:52;;;;;;;24.73;8.30;;;;;;;;;;5132410;27;20282;-63
2023/10/09 10:03:20;;;;;;;35.58;7.63;;;;;;;;;;5134498;27;20210;-63
2023/10/09 10:05:48;;;;;;;27.20;7.47;;;;;;;;;;5119866;27;20226;-63
2023/10/09 10:08:19;;;;;;;25.23;6.70;;;;;;;;;;5131330;27;20205;-63
2023/10/09 10:10:52;;;;;;;27.45;7.25;;;;;;;;;;5132153;27;20214;-63
2023/10/09 10:13:27;;;;;;;36.10;7.32;;;;;;;;;;5126974;27;20639;-63
2023/10/09 10:16:11;;;;;;;21.27;6.57;;;;;;;;;;5119689;27;20220;-63
2023/10/09 10:18:52;;;;;;;22.23;5.63;;;;;;;;;;5128640;27;20294;-63
2023/10/09 10:21:29;;;;;;;26.35;5.45;;;;;;;;;;5135309;27;20220;-63
2023/10/09 10:24:05;;;;;;;18.00;5.30;;;;;;;;;;5124875;27;20226;-63
2023/10/09 10:26:33;;;;;;;29.63;5.93;;;;;;;;;;5128171;27;20218;-63
2023/10/09 10:29:22;;;;;;;20.60;5.30;;;;;;;;;;5133530;27;20277;-63
2023/10/09 10:31:57;;;;;;;19.45;5.57;;;;;;;;;;5124947;27;20202;-63
2023/10/09 10:34:24;;;;;;;22.77;5.75;;;;;;;;;;5128455;27;20205;-63
2023/10/09 10:36:52;;;;;;;15.45;5.38;;;;;;;;;;5132524;27;20222;-63
2023/10/09 10:39:23;;;;;;;20.95;5.85;;;;;;;;;;5132836;27;20237;-63
2023/10/09 10:41:57;;;;;;;20.98;4.97;;;;;;;;;;5118040;27;20206;-63
2023/10/09 10:44:37;;;;;;;16.60;5.20;;;;;;;;;;5133704;27;20210;-63
2023/10/09 10:47:15;;;;;;;22.95;5.22;;;;;;;;;;5128070;27;20226;-64
2023/10/09 10:49:44;;;;;;;19.23;5.45;;;;;;;;;;5129310;27;20231;-63
2023/10/09 10:52:21;;;;;;;25.92;5.43;;;;;;;;;;5130810;27;20206;-63
2023/10/09 10:55:05;;;;;;;22.83;5.20;;;;;;;;;;5125798;27;20209;-63
2023/10/09 10:57:53;;;;;;;19.08;5.07;;;;;;;;;;5131472;27;20213;-63
2023/10/09 11:03:13;;;;;;;19.08;5.90;;;;;;;;;;5132335;27;20346;-63
2023/10/09 11:05:40;;;;;;;16.73;4.78;;;;;;;;;;5138163;27;20230;-63
2023/10/09 11:08:09;;;;;;;20.60;4.88;;;;;;;;;;5137820;27;20202;-63
2023/10/09 11:10:36;;;;;;;21.35;5.05;;;;;;;;;;5135107;27;20209;-63
2023/10/09 11:13:32;;;;;;;15.38;4.95;;;;;;;;;;5126181;27;20676;-63
2023/10/09 11:16:14;;;;;;;14.93;5.07;;;;;;;;;;5126216;27;20217;-63
2023/10/09 11:18:46;;;;;;;20.23;5.35;;;;;;;;;;5133928;27;20257;-63
2023/10/09 11:21:32;;;;;;;19.20;5.13;;;;;;;;;;5128587;27;20251;-63
2023/10/09 11:24:24;;;;;;;20.92;5.28;;;;;;;;;;5134090;27;20206;-62
2023/10/09 11:26:55;;;;;;;15.32;5.00;;;;;;;;;;5135177;27;20222;-64
2023/10/09 11:29:29;;;;;;;20.75;4.97;;;;;;;;;;5126594;27;20296;-64
2023/10/09 11:32:01;;;;;;;19.30;5.13;;;;;;;;;;5124196;27;21058;-65
2023/10/09 11:34:31;;;;;;;18.80;4.75;;;;;;;;;;5129882;27;20198;-65
2023/10/09 11:36:58;;;;;;;22.38;5.03;;;;;;;;;;5126260;27;20226;-64
2023/10/09 11:39:31;;;;;;;22.58;5.47;;;;;;;;;;5130477;27;20280;-66
2023/10/09 11:42:00;;;;;;;19.55;5.50;;;;;;;;;;5129833;27;20207;-65
2023/10/09 11:44:35;;;;;;;19.58;4.72;;;;;;;;;;5125190;27;20202;-63
2023/10/09 11:47:14;;;;;;;15.65;4.85;;;;;;;;;;5119516;27;20642;-65
2023/10/09 11:49:48;;;;;;;19.75;5.03;;;;;;;;;;5121893;27;20667;-64
2023/10/09 11:54:59;;;;;;;20.80;5.30;;;;;;;;;;5131370;27;20216;-67
2023/10/09 11:57:30;;;;;;;26.85;5.55;;;;;;;;;;5130788;27;20255;-68
2023/10/09 11:59:57;;;;;;;18.45;4.85;;;;;;;;;;5130655;27;20204;-68
2023/10/09 12:02:23;;;;;;;28.77;5.90;;;;;;;;;;5130629;27;20217;-68
2023/10/09 12:04:50;;;;;;;23.92;5.20;;;;;;;;;;5128172;27;20217;-68
2023/10/09 12:07:20;;;;;;;23.17;5.10;;;;;;;;;;5128488;27;20708;-68
2023/10/09 12:09:47;;;;;;;31.75;6.45;;;;;;;;;;5125594;27;20202;-68
2023/10/09 12:12:13;;;;;;;21.92;5.50;;;;;;;;;;5118152;27;20308;-68
2023/10/09 12:14:40;;;;;;;25.95;6.10;;;;;;;;;;5129162;27;20214;-68
2023/10/09 12:17:06;;;;;;;24.20;6.22;;;;;;;;;;5116652;27;20233;-68
2023/10/09 12:19:33;;;;;;;20.63;6.05;;;;;;;;;;5122869;27;20222;-68
2023/10/09 12:22:03;;;;;;;23.15;5.65;;;;;;;;;;5122356;27;20293;-68
2023/10/09 12:24:30;;;;;;;22.65;5.90;;;;;;;;;;5134167;27;20670;-68
2023/10/09 12:26:56;;;;;;;27.65;6.22;;;;;;;;;;5118093;27;20229;-68
2023/10/09 12:29:23;;;;;;;30.23;6.30;;;;;;;;;;5121448;27;20311;-68
2023/10/09 12:31:57;;;;;;;25.27;5.57;;;;;;;;;;5117898;27;20202;-65
2023/10/09 12:34:26;;;;;;;24.63;5.43;;;;;;;;;;5119323;27;20275;-66
2023/10/09 12:36:52;;;;;;;24.33;5.63;;;;;;;;;;5119640;27;20226;-65
2023/10/09 12:39:20;;;;;;;30.77;6.45;;;;;;;;;;5125465;27;20226;-65
2023/10/09 12:41:46;;;;;;;15.60;5.10;;;;;;;;;;5135816;27;20205;-65
2023/10/09 12:44:14;;;;;;;22.48;5.47;;;;;;;;;;5128710;27;20217;-64
2023/10/09 12:46:41;;;;;;;25.65;5.45;;;;;;;;;;5130015;27;20593;-64
2023/10/09 12:49:07;;;;;;;26.42;5.75;;;;;;;;;;5127125;27;20205;-64
2023/10/09 12:51:33;;;;;;;19.52;4.70;;;;;;;;;;5125761;27;20930;-64
2023/10/09 12:54:01;;;;;;;34.65;6.40;;;;;;;;;;5131973;27;20584;-64
2023/10/09 12:56:33;;;;;;;23.65;5.13;;;;;;;;;;5127383;27;20222;-64
2023/10/09 12:59:00;;;;;;;36.72;5.68;;;;;;;;;;5126176;27;20812;-64
2023/10/09 13:01:31;;;;;;;33.78;5.57;;;;;;;;;;5131721;27;20233;-64
2023/10/09 13:03:59;;;;;;;29.52;5.82;;;;;;;;;;5131331;27;20587;-64
2023/10/09 13:06:25;;;;;;;29.90;5.25;;;;;;;;;;5126422;27;20217;-64
2023/10/09 13:08:52;;;;;;;40.97;6.43;;;;;;;;;;5126085;27;20209;-64
2023/10/09 13:11:19;;;;;;;34.47;6.28;;;;;;;;;;5136850;27;20205;-64
2023/10/09 13:13:50;;;;;;;26.67;5.60;;;;;;;;;;5128891;27;20287;-64
2023/10/09 13:16:22;;;;;;;25.67;5.75;;;;;;;;;;5124169;27;20222;-64
2023/10/09 13:18:50;;;;;;;32.78;6.85;;;;;;;;;;5129120;27;20242;-64
2023/10/09 13:21:17;;;;;;;24.45;5.93;;;;;;;;;;5133401;27;20197;-64
2023/10/09 13:23:46;;;;;;;26.25;6.15;;;;;;;;;;5123640;27;20202;-64
2023/10/09 13:26:19;;;;;;;23.67;5.90;;;;;;;;;;5132605;27;20227;-64
2023/10/09 13:28:47;;;;;;;35.65;5.45;;;;;;;;;;5127566;27;20209;-64
2023/10/09 13:31:14;;;;;;;25.70;6.15;;;;;;;;;;5135913;27;20612;-64
2023/10/09 13:33:41;;;;;;;23.58;5.20;;;;;;;;;;5130297;27;20205;-63
2023/10/09 13:36:15;;;;;;;18.10;4.90;;;;;;;;;;5135803;27;20634;-63
2023/10/09 13:38:43;;;;;;;25.02;5.43;;;;;;;;;;5129030;27;20228;-63
2023/10/09 13:41:12;;;;;;;36.35;5.72;;;;;;;;;;5128550;27;20201;-63
2023/10/09 13:43:40;;;;;;;29.25;5.60;;;;;;;;;;5129820;27;20209;-63
2023/10/09 13:46:08;;;;;;;34.22;5.55;;;;;;;;;;5126694;27;20216;-63
2023/10/09 13:48:38;;;;;;;34.05;5.47;;;;;;;;;;5126951;27;20284;-63
2023/10/09 13:51:07;;;;;;;38.10;6.00;;;;;;;;;;5132156;27;20290;-63
2023/10/09 13:53:35;;;;;;;31.58;5.65;;;;;;;;;;5132618;27;20275;-63
2023/10/09 13:56:02;;;;;;;26.23;5.70;;;;;;;;;;5129149;27;20234;-64
2023/10/09 13:58:29;;;;;;;26.95;5.65;;;;;;;;;;5126771;27;20206;-64
2023/10/09 14:00:56;;;;;;;32.58;6.20;;;;;;;;;;5132031;27;20209;-64
2023/10/09 14:03:24;;;;;;;24.65;5.93;;;;;;;;;;5125636;27;20704;-64
2023/10/09 14:05:56;;;;;;;26.42;4.88;;;;;;;;;;5132932;27;20289;-64
2023/10/09 14:08:23;;;;;;;18.95;5.18;;;;;;;;;;5131026;27;20258;-64
2023/10/09 14:10:50;;;;;;;23.00;5.68;;;;;;;;;;5132581;27;20316;-64
2023/10/09 14:13:17;;;;;;;19.55;5.38;;;;;;;;;;5126823;27;20283;-64
2023/10/09 14:15:45;;;;;;;21.10;5.53;;;;;;;;;;5132562;27;20224;-64
2023/10/09 14:18:12;;;;;;;17.33;5.20;;;;;;;;;;5129225;27;20290;-64
2023/10/09 14:20:41;;;;;;;16.33;5.50;;;;;;;;;;5125826;27;20309;-64
2023/10/09 14:23:08;;;;;;;21.48;6.38;;;;;;;;;;5132980;27;20201;-64
2023/10/09 14:25:37;;;;;;;22.25;5.88;;;;;;;;;;5127682;27;20791;-64
2023/10/09 14:28:07;;;;;;;15.52;5.20;;;;;;;;;;5134370;27;20233;-63
2023/10/09 14:30:41;;;;;;;16.10;5.57;;;;;;;;;;5135650;27;20232;-63
2023/10/09 14:33:12;;;;;;;20.45;5.97;;;;;;;;;;5126266;27;20589;-63
2023/10/09 14:35:39;;;;;;;18.02;5.65;;;;;;;;;;5132620;27;20236;-63
2023/10/09 14:38:11;;;;;;;21.60;5.45;;;;;;;;;;5132127;27;20201;-64
2023/10/09 14:40:41;;;;;;;17.13;5.47;;;;;;;;;;5136460;27;20263;-63
2023/10/09 14:43:08;;;;;;;11.27;5.50;;;;;;;;;;5137878;27;20234;-64
2023/10/09 14:45:36;;;;;;;15.15;5.88;;;;;;;;;;5128398;27;20218;-64
2023/10/09 14:48:03;;;;;;;24.33;5.90;;;;;;;;;;5128632;27;20202;-64
2023/10/09 14:50:29;;;;;;;26.05;5.82;;;;;;;;;;5133588;27;20205;-64
2023/10/09 14:53:01;;;;;;;15.38;5.45;;;;;;;;;;5138264;27;20216;-64
2023/10/09 14:55:31;;;;;;;18.98;5.28;;;;;;;;;;5128099;27;20316;-64
2023/10/09 14:57:58;;;;;;;14.75;5.10;;;;;;;;;;5136986;27;20579;-64
2023/10/09 15:00:26;;;;;;;16.08;4.97;;;;;;;;;;5139649;27;20245;-64
2023/10/09 15:02:52;;;;;;;24.13;5.53;;;;;;;;;;5135145;27;20228;-64
2023/10/09 15:05:19;;;;;;;23.02;5.68;;;;;;;;;;5130352;27;20226;-64
2023/10/09 15:07:45;;;;;;;17.85;5.75;;;;;;;;;;5136035;27;20225;-63
2023/10/09 15:10:15;;;;;;;20.67;5.47;;;;;;;;;;5130613;27;20201;-63
2023/10/09 15:12:42;;;;;;;19.55;5.63;;;;;;;;;;5130132;27;20624;-63
2023/10/09 15:15:13;;;;;;;11.95;5.93;;;;;;;;;;5131235;27;20683;-64
2023/10/09 15:17:40;;;;;;;15.55;6.15;;;;;;;;;;5134340;27;20209;-64
2023/10/09 15:20:13;;;;;;;18.70;6.85;;;;;;;;;;5142001;27;20213;-63
2023/10/09 15:22:39;;;;;;;21.35;6.00;;;;;;;;;;5142815;27;20209;-63
2023/10/09 15:25:06;;;;;;;13.68;6.22;;;;;;;;;;5140276;27;20796;-63
2023/10/09 15:27:34;;;;;;;15.98;5.88;;;;;;;;;;5138854;27;20283;-65
2023/10/09 15:30:00;;;;;;;9.98;5.68;;;;;;;;;;5141181;27;20204;-65
2023/10/09 15:32:26;;;;;;;15.20;6.05;;;;;;;;;;5139518;27;20209;-65
2023/10/09 15:34:55;;;;;;;18.98;5.95;;;;;;;;;;5143742;27;20201;-66
2023/10/09 15:37:22;;;;;;;20.83;6.65;;;;;;;;;;5127162;27;20753;-64
2023/10/09 15:39:49;;;;;;;18.80;5.63;;;;;;;;;;5139250;27;20214;-66
2023/10/09 15:42:16;;;;;;;12.27;6.22;;;;;;;;;;5143126;27;20201;-68
2023/10/09 15:44:47;;;;;;;13.00;6.20;;;;;;;;;;5142953;27;20209;-64
2023/10/09 15:47:15;;;;;;;15.55;6.10;;;;;;;;;;5138940;27;20218;-66
2023/10/09 15:49:43;;;;;;;20.45;6.13;;;;;;;;;;5137796;27;20275;-67
2023/10/09 15:52:13;;;;;;;12.68;6.15;;;;;;;;;;5140947;27;20255;-66